Time;durP1;ratioP1;P1;durP2;ratioP2;P2;SDS_P1;SDS_P2;PMS_P1;PMS_P2;Temp;Humidity;BMP_temperature;BMP_pressure;BME280_temperature;BME280_humidity;BME280_pressure;Samples;Min_cycle;Max_cycle;Signal;HPM_P1;HPM_P2
2023/09/17 00:01:23;;;;;;;8.07;6.78;;;19.00;77.30;;;;;;5031819;28;20090;-61
2023/09/17 00:03:50;;;;;;;9.77;7.35;;;19.00;76.90;;;;;;5032054;28;20040;-61
2023/09/17 00:06:16;;;;;;;8.15;7.20;;;19.00;76.90;;;;;;5032116;28;20440;-61
2023/09/17 00:08:41;;;;;;;8.32;7.53;;;19.00;77.00;;;;;;5031739;28;20163;-60
2023/09/17 00:11:07;;;;;;;8.48;7.50;;;19.00;77.00;;;;;;5031982;28;20032;-61
2023/09/17 00:13:33;;;;;;;9.50;8.50;;;19.00;77.10;;;;;;5032000;28;20025;-61
2023/09/17 00:16:00;;;;;;;9.02;8.10;;;19.00;77.30;;;;;;5031936;28;20127;-61
2023/09/17 00:18:26;;;;;;;10.25;9.20;;;18.90;77.60;;;;;;5031531;28;20045;-61
2023/09/17 00:20:51;;;;;;;9.55;8.55;;;18.90;77.80;;;;;;5031604;28;20119;-61
2023/09/17 00:23:17;;;;;;;10.50;9.50;;;18.90;77.90;;;;;;5031472;28;20026;-61
2023/09/17 00:25:43;;;;;;;10.60;9.50;;;18.90;77.60;;;;;;5031455;28;20052;-61
2023/09/17 00:28:09;;;;;;;9.73;8.57;;;18.90;77.60;;;;;;5031850;28;20027;-61
2023/09/17 00:30:34;;;;;;;12.82;9.80;;;18.90;77.70;;;;;;5031435;28;20429;-61
2023/09/17 00:33:00;;;;;;;9.85;8.63;;;18.90;77.90;;;;;;5031443;28;20079;-60
2023/09/17 00:35:26;;;;;;;10.75;8.85;;;18.90;78.20;;;;;;5031380;28;20111;-61
2023/09/17 00:37:51;;;;;;;9.93;8.60;;;18.90;78.30;;;;;;5031519;28;20394;-60
2023/09/17 00:40:17;;;;;;;12.98;9.13;;;18.90;78.60;;;;;;5031384;28;20029;-61
2023/09/17 00:42:43;;;;;;;9.20;8.30;;;18.90;78.60;;;;;;5031284;28;20034;-61
2023/09/17 00:45:10;;;;;;;9.73;8.70;;;18.90;78.50;;;;;;5031297;28;20060;-61
2023/09/17 00:47:37;;;;;;;9.23;8.25;;;18.80;78.60;;;;;;5031496;28;20033;-61
2023/09/17 00:50:04;;;;;;;10.80;8.48;;;18.80;78.60;;;;;;5031414;28;20083;-61
2023/09/17 00:52:33;;;;;;;9.00;8.10;;;18.80;78.80;;;;;;5031001;28;20017;-61
2023/09/17 00:54:58;;;;;;;9.95;8.15;;;18.80;79.00;;;;;;5031210;28;20041;-61
2023/09/17 00:57:24;;;;;;;11.18;8.95;;;18.80;79.10;;;;;;5030910;28;20146;-61
2023/09/17 00:59:50;;;;;;;9.52;8.50;;;18.80;79.20;;;;;;5031299;28;20029;-61
2023/09/17 01:02:20;;;;;;;9.48;8.55;;;18.80;79.20;;;;;;5031335;28;20029;-60
2023/09/17 01:04:49;;;;;;;10.10;8.88;;;18.80;79.30;;;;;;5031068;28;20385;-61
2023/09/17 01:07:19;;;;;;;9.63;8.27;;;18.80;79.40;;;;;;5031006;28;20029;-61
2023/09/17 01:09:45;;;;;;;11.57;8.35;;;18.80;79.50;;;;;;5030935;28;20389;-61
2023/09/17 01:12:11;;;;;;;9.05;8.15;;;18.80;79.60;;;;;;5030934;28;20033;-61
2023/09/17 01:14:37;;;;;;;9.73;8.73;;;18.80;79.90;;;;;;5031188;28;20116;-61
2023/09/17 01:17:08;;;;;;;11.82;9.52;;;18.80;80.10;;;;;;5031077;28;20087;-61
2023/09/17 01:19:34;;;;;;;8.93;8.02;;;18.80;80.30;;;;;;5030902;28;20030;-61
2023/09/17 01:22:09;;;;;;;9.15;8.23;;;18.70;80.20;;;;;;5031164;28;20036;-60
2023/09/17 01:25:00;;;;;;;10.25;9.05;;;18.70;80.50;;;;;;5030839;28;20032;-61
2023/09/17 01:27:26;;;;;;;9.85;8.95;;;18.70;80.70;;;;;;5031103;28;20380;-60
2023/09/17 01:29:53;;;;;;;9.85;8.63;;;18.70;81.10;;;;;;5030889;28;20017;-61
2023/09/17 01:32:19;;;;;;;8.85;8.00;;;18.70;81.40;;;;;;5012894;28;20564;-61
2023/09/17 01:34:49;;;;;;;9.65;8.48;;;18.70;81.70;;;;;;5030885;28;20026;-61
2023/09/17 01:37:23;;;;;;;9.13;8.20;;;18.70;81.70;;;;;;5030606;28;20068;-61
2023/09/17 01:40:12;;;;;;;8.48;7.63;;;18.70;81.90;;;;;;5031044;28;20041;-60
2023/09/17 01:42:40;;;;;;;10.60;9.60;;;18.80;81.60;;;;;;5030737;28;20057;-61
2023/09/17 01:45:09;;;;;;;11.02;8.50;;;18.70;81.90;;;;;;5030624;28;20030;-61
2023/09/17 01:47:35;;;;;;;10.00;9.00;;;18.70;81.80;;;;;;5030848;28;20378;-61
2023/09/17 01:50:04;;;;;;;9.80;8.80;;;18.70;81.60;;;;;;5030571;28;20056;-61
2023/09/17 01:52:32;;;;;;;10.02;9.02;;;18.70;81.40;;;;;;5028937;28;20025;-61
2023/09/17 01:55:04;;;;;;;10.10;9.00;;;18.70;81.10;;;;;;5030487;28;20051;-61
2023/09/17 01:57:31;;;;;;;10.18;9.18;;;18.70;81.30;;;;;;5030230;28;20049;-61
2023/09/17 01:59:57;;;;;;;10.60;8.73;;;18.70;81.50;;;;;;5029618;28;20037;-61
2023/09/17 02:02:23;;;;;;;10.27;8.20;;;18.70;81.60;;;;;;5030291;28;20037;-60
2023/09/17 02:04:49;;;;;;;9.88;8.90;;;18.70;81.60;;;;;;5031925;28;20030;-61
2023/09/17 02:07:15;;;;;;;9.98;8.98;;;18.70;81.70;;;;;;5034074;28;20021;-61
2023/09/17 02:09:41;;;;;;;9.02;8.13;;;18.70;81.80;;;;;;5034418;28;20086;-61
2023/09/17 02:12:07;;;;;;;11.15;8.93;;;18.70;81.80;;;;;;5033979;28;20489;-61
2023/09/17 02:14:32;;;;;;;10.85;8.70;;;18.70;81.80;;;;;;5033826;28;20041;-61
2023/09/17 02:16:58;;;;;;;9.82;8.77;;;18.70;82.00;;;;;;5033882;28;20033;-60
2023/09/17 02:19:25;;;;;;;10.73;9.07;;;18.70;81.90;;;;;;5033822;28;20029;-61
2023/09/17 02:21:52;;;;;;;9.10;8.20;;;18.80;82.00;;;;;;5033741;28;20068;-61
2023/09/17 02:24:19;;;;;;;10.07;8.30;;;18.70;82.20;;;;;;5034402;28;20029;-61
2023/09/17 02:26:45;;;;;;;9.45;8.52;;;18.70;82.40;;;;;;5034035;28;20064;-61
2023/09/17 02:29:11;;;;;;;9.32;8.32;;;18.70;82.50;;;;;;5033796;28;20034;-61
2023/09/17 02:31:37;;;;;;;9.48;8.57;;;18.70;82.60;;;;;;5033754;28;20052;-61
2023/09/17 02:34:03;;;;;;;10.75;9.60;;;18.70;82.50;;;;;;5033298;28;20036;-60
2023/09/17 02:36:29;;;;;;;11.10;9.18;;;18.70;82.50;;;;;;5033658;28;20025;-61
2023/09/17 02:38:55;;;;;;;11.43;9.15;;;18.70;82.40;;;;;;5033638;28;20044;-61
2023/09/17 02:41:21;;;;;;;10.88;9.13;;;18.60;82.30;;;;;;5033420;28;20022;-61
2023/09/17 02:43:47;;;;;;;9.98;8.98;;;18.60;82.10;;;;;;5033621;28;20501;-61
2023/09/17 02:46:12;;;;;;;10.13;9.10;;;18.60;82.20;;;;;;5033204;28;20064;-61
2023/09/17 02:48:38;;;;;;;10.02;8.98;;;18.60;82.80;;;;;;5033705;28;20029;-61
2023/09/17 02:51:04;;;;;;;9.70;8.68;;;18.60;83.40;;;;;;5033436;28;20029;-61
2023/09/17 02:53:29;;;;;;;9.60;8.60;;;18.60;83.60;;;;;;5033139;28;20029;-61
2023/09/17 02:55:56;;;;;;;9.55;8.57;;;18.60;83.70;;;;;;5032040;28;20049;-61
2023/09/17 02:58:23;;;;;;;10.48;9.20;;;18.60;83.80;;;;;;5033413;28;20030;-61
2023/09/17 03:00:49;;;;;;;10.20;9.07;;;18.60;83.80;;;;;;5015231;28;20052;-61
2023/09/17 03:03:15;;;;;;;11.27;8.88;;;18.70;83.70;;;;;;5033279;28;20060;-61
2023/09/17 03:05:44;;;;;;;10.43;8.85;;;18.60;83.60;;;;;;5033338;28;20026;-61
2023/09/17 03:08:09;;;;;;;14.10;8.93;;;18.60;83.90;;;;;;5033571;28;20022;-61
2023/09/17 03:10:42;;;;;;;9.93;8.93;;;18.70;84.00;;;;;;5032782;28;20496;-61
2023/09/17 03:13:12;;;;;;;10.52;9.40;;;18.70;84.20;;;;;;5033158;28;20025;-61
2023/09/17 03:15:38;;;;;;;10.20;9.10;;;18.70;84.40;;;;;;5031809;28;20056;-61
2023/09/17 03:18:04;;;;;;;11.07;9.98;;;18.70;84.70;;;;;;5032518;28;20021;-61
2023/09/17 03:20:33;;;;;;;11.80;9.40;;;18.70;84.80;;;;;;5032715;28;20018;-61
2023/09/17 03:23:04;;;;;;;11.40;10.20;;;18.70;84.80;;;;;;5032969;28;20100;-60
2023/09/17 03:25:33;;;;;;;11.70;9.48;;;18.70;84.90;;;;;;5032998;28;20115;-61
2023/09/17 03:27:59;;;;;;;11.75;9.63;;;18.70;84.80;;;;;;5032600;28;20029;-61
2023/09/17 03:30:26;;;;;;;10.55;9.23;;;18.60;85.00;;;;;;5032705;28;20036;-61
2023/09/17 03:32:52;;;;;;;11.40;9.63;;;18.60;85.10;;;;;;5032494;28;20080;-60
2023/09/17 03:35:17;;;;;;;11.02;9.82;;;18.60;85.10;;;;;;5032483;28;20025;-61
2023/09/17 03:37:43;;;;;;;13.32;10.13;;;18.60;84.90;;;;;;5032613;28;20033;-61
2023/09/17 03:40:11;;;;;;;10.93;9.82;;;18.60;84.90;;;;;;5032623;28;20072;-61
2023/09/17 03:42:38;;;;;;;10.65;9.55;;;18.60;84.90;;;;;;5032165;28;20026;-61
2023/09/17 03:45:12;;;;;;;10.05;8.98;;;18.60;84.90;;;;;;5032485;28;20029;-61
2023/09/17 03:47:38;;;;;;;13.13;9.93;;;18.60;85.00;;;;;;5032185;28;20033;-60
2023/09/17 03:50:06;;;;;;;11.70;10.13;;;18.60;85.10;;;;;;5032137;28;20028;-60
2023/09/17 03:52:34;;;;;;;11.65;9.57;;;18.60;85.10;;;;;;5032365;28;20500;-61
2023/09/17 03:55:00;;;;;;;10.93;9.82;;;18.60;85.10;;;;;;5031829;28;20075;-61
2023/09/17 03:57:27;;;;;;;11.02;9.82;;;18.60;85.10;;;;;;5031891;28;20050;-61
2023/09/17 03:59:54;;;;;;;11.10;9.77;;;18.60;85.10;;;;;;5032123;28;20029;-61
2023/09/17 04:02:20;;;;;;;12.35;9.80;;;18.60;85.10;;;;;;5032015;28;20032;-61
2023/09/17 04:04:47;;;;;;;13.02;9.75;;;18.60;85.00;;;;;;5032158;28;20033;-61
2023/09/17 04:07:12;;;;;;;12.43;9.60;;;18.60;85.10;;;;;;5032065;28;20041;-61
2023/09/17 04:09:38;;;;;;;11.50;10.30;;;18.60;85.10;;;;;;5031799;28;20030;-61
2023/09/17 04:12:04;;;;;;;11.40;9.82;;;18.60;85.10;;;;;;5031773;28;20110;-61
2023/09/17 04:14:31;;;;;;;10.68;9.50;;;18.60;85.20;;;;;;5031642;28;20070;-61
2023/09/17 04:17:02;;;;;;;11.48;9.73;;;18.70;85.10;;;;;;5031909;28;20022;-61
2023/09/17 04:19:31;;;;;;;11.90;10.43;;;18.70;85.10;;;;;;5031706;28;20040;-60
2023/09/17 04:21:57;;;;;;;11.10;9.77;;;18.70;85.00;;;;;;5031979;28;20053;-61
2023/09/17 04:24:23;;;;;;;11.23;9.75;;;18.70;84.70;;;;;;5031499;28;20076;-61
2023/09/17 04:26:49;;;;;;;12.68;10.30;;;18.70;84.60;;;;;;5031154;28;20458;-61
2023/09/17 04:29:15;;;;;;;11.23;10.02;;;18.70;84.50;;;;;;5031488;28;20060;-61
2023/09/17 04:31:41;;;;;;;10.02;9.00;;;18.70;84.30;;;;;;5031703;28;20056;-61
2023/09/17 04:34:06;;;;;;;11.20;9.77;;;18.80;84.40;;;;;;5031598;28;20469;-61
2023/09/17 04:36:32;;;;;;;10.77;9.65;;;18.80;84.20;;;;;;5031336;28;20107;-61
2023/09/17 04:38:57;;;;;;;11.98;10.63;;;18.80;84.20;;;;;;5031911;28;20458;-61
2023/09/17 04:41:23;;;;;;;11.02;9.85;;;18.80;84.10;;;;;;5031310;28;20510;-61
2023/09/17 04:43:49;;;;;;;10.68;9.55;;;18.80;84.00;;;;;;5031288;28;20082;-61
2023/09/17 04:46:15;;;;;;;11.63;9.93;;;18.80;84.00;;;;;;5031201;28;20084;-61
2023/09/17 04:48:40;;;;;;;11.20;9.80;;;18.90;84.10;;;;;;5031227;28;20029;-61
2023/09/17 04:51:06;;;;;;;12.73;9.85;;;18.90;84.00;;;;;;5031191;28;20424;-61
2023/09/17 04:53:32;;;;;;;11.95;10.68;;;18.90;83.90;;;;;;5031297;28;20110;-61
2023/09/17 04:55:58;;;;;;;11.63;10.00;;;18.90;83.80;;;;;;5031020;28;20049;-61
2023/09/17 04:58:24;;;;;;;10.95;9.80;;;18.90;83.80;;;;;;5031353;28;20033;-60
2023/09/17 05:00:50;;;;;;;10.68;9.38;;;18.90;83.80;;;;;;5031113;28;20024;-61
2023/09/17 05:03:16;;;;;;;11.95;9.88;;;19.00;84.00;;;;;;5031301;28;20485;-61
2023/09/17 05:05:42;;;;;;;11.35;10.13;;;19.00;83.90;;;;;;5031060;28;20119;-61
2023/09/17 05:08:08;;;;;;;10.60;9.52;;;19.10;83.90;;;;;;5013256;28;20021;-61
2023/09/17 05:10:33;;;;;;;12.98;11.07;;;19.10;83.80;;;;;;5030946;28;20494;-60
2023/09/17 05:12:59;;;;;;;14.85;11.25;;;19.10;83.90;;;;;;5031031;28;20121;-61
2023/09/17 05:15:25;;;;;;;9.90;8.90;;;19.20;83.80;;;;;;5031087;28;20033;-61
2023/09/17 05:17:51;;;;;;;11.40;9.93;;;19.30;83.40;;;;;;5030941;28;20022;-61
2023/09/17 05:20:18;;;;;;;11.88;10.52;;;19.30;83.00;;;;;;5031061;28;20022;-61
2023/09/17 05:22:44;;;;;;;13.02;10.05;;;19.30;82.90;;;;;;5031209;28;20462;-61
2023/09/17 05:25:09;;;;;;;10.65;9.55;;;19.40;83.00;;;;;;5031083;28;20101;-61
2023/09/17 05:27:35;;;;;;;11.50;10.05;;;19.40;82.90;;;;;;5030984;28;20029;-60
2023/09/17 05:30:01;;;;;;;15.07;10.30;;;19.50;83.00;;;;;;5030777;28;20495;-60
2023/09/17 05:32:27;;;;;;;11.43;10.18;;;19.50;82.90;;;;;;5030779;28;20393;-61
2023/09/17 05:34:53;;;;;;;11.18;9.93;;;19.50;82.90;;;;;;5030837;28;20033;-61
2023/09/17 05:37:19;;;;;;;10.73;9.63;;;19.50;82.80;;;;;;5030635;28;20031;-60
2023/09/17 05:39:44;;;;;;;12.93;10.05;;;19.50;82.80;;;;;;5032358;28;20037;-61
2023/09/17 05:42:10;;;;;;;10.25;9.25;;;19.50;82.80;;;;;;5034498;28;20064;-61
2023/09/17 05:44:36;;;;;;;13.60;11.07;;;19.50;82.80;;;;;;5034500;28;20040;-60
2023/09/17 05:47:01;;;;;;;12.88;10.45;;;19.50;82.80;;;;;;5034349;28;20428;-61
2023/09/17 05:49:27;;;;;;;11.57;10.32;;;19.50;82.80;;;;;;5034358;28;20076;-61
2023/09/17 05:51:53;;;;;;;13.32;10.25;;;19.60;83.00;;;;;;5033928;28;20026;-61
2023/09/17 05:54:21;;;;;;;11.35;10.15;;;19.60;82.80;;;;;;5031788;28;20025;-61
2023/09/17 05:56:46;;;;;;;12.13;10.68;;;19.60;82.90;;;;;;5030560;28;20508;-61
2023/09/17 05:59:12;;;;;;;11.82;10.57;;;19.70;82.80;;;;;;5030810;28;20053;-61
2023/09/17 06:01:38;;;;;;;11.07;9.98;;;19.70;82.60;;;;;;5031148;28;20025;-61
2023/09/17 06:04:04;;;;;;;12.48;10.68;;;19.80;82.50;;;;;;5030919;28;20040;-61
2023/09/17 06:06:29;;;;;;;11.40;10.13;;;19.80;82.20;;;;;;5030990;28;20029;-61
2023/09/17 06:08:55;;;;;;;10.85;9.75;;;19.90;82.20;;;;;;5033070;28;20028;-61
2023/09/17 06:11:21;;;;;;;12.55;10.88;;;19.90;82.10;;;;;;5033867;28;20025;-61
2023/09/17 06:13:46;;;;;;;11.88;10.43;;;19.90;82.00;;;;;;5033907;28;20087;-61
2023/09/17 06:16:12;;;;;;;11.15;9.88;;;19.90;81.80;;;;;;5033410;28;20029;-61
2023/09/17 06:18:37;;;;;;;10.75;9.65;;;19.90;81.80;;;;;;5033537;28;20057;-61
2023/09/17 06:21:03;;;;;;;11.55;10.35;;;19.90;81.90;;;;;;5033220;28;20032;-61
2023/09/17 06:23:29;;;;;;;12.70;10.27;;;20.00;81.80;;;;;;5033458;28;20021;-61
2023/09/17 06:25:55;;;;;;;11.23;10.02;;;20.00;81.70;;;;;;5033696;28;20039;-61
2023/09/17 06:28:20;;;;;;;11.73;10.48;;;20.10;82.30;;;;;;5033433;28;20116;-61
2023/09/17 06:30:46;;;;;;;13.80;11.00;;;20.10;81.80;;;;;;5033553;28;20021;-61
2023/09/17 06:33:12;;;;;;;10.98;9.77;;;20.10;81.60;;;;;;5033450;28;20370;-61
2023/09/17 06:35:38;;;;;;;11.55;10.35;;;20.20;81.60;;;;;;5033376;28;20025;-60
2023/09/17 06:38:04;;;;;;;10.55;9.45;;;20.20;81.50;;;;;;5033375;28;20072;-61
2023/09/17 06:40:29;;;;;;;11.40;10.25;;;20.30;81.50;;;;;;5033438;28;20107;-60
2023/09/17 06:42:55;;;;;;;12.13;10.55;;;20.40;82.10;;;;;;5033357;28;20450;-60
2023/09/17 06:45:21;;;;;;;11.65;9.95;;;20.40;81.20;;;;;;5033527;28;20025;-60
2023/09/17 06:47:47;;;;;;;12.07;10.80;;;20.40;81.20;;;;;;5033494;28;20030;-60
2023/09/17 06:50:13;;;;;;;11.95;10.70;;;20.50;81.10;;;;;;5015353;28;20040;-60
2023/09/17 06:52:39;;;;;;;11.25;9.93;;;20.50;81.20;;;;;;5033508;28;20033;-60
2023/09/17 06:55:05;;;;;;;11.65;10.45;;;20.60;81.40;;;;;;5033198;28;20041;-60
2023/09/17 06:57:31;;;;;;;13.25;10.85;;;20.60;81.10;;;;;;5033468;28;20033;-61
2023/09/17 06:59:57;;;;;;;11.88;10.60;;;20.60;81.10;;;;;;5033439;28;20029;-60
2023/09/17 07:02:23;;;;;;;11.65;10.32;;;20.60;81.10;;;;;;5033042;28;20025;-60
2023/09/17 07:04:49;;;;;;;13.43;10.75;;;20.70;80.90;;;;;;5033259;28;20028;-60
2023/09/17 07:07:14;;;;;;;10.57;9.52;;;20.80;80.90;;;;;;5033169;28;20385;-60
2023/09/17 07:09:40;;;;;;;11.57;10.32;;;20.70;80.80;;;;;;5033102;28;20056;-60
2023/09/17 07:12:06;;;;;;;11.40;9.73;;;20.80;80.80;;;;;;5032878;28;20068;-60
2023/09/17 07:14:32;;;;;;;10.68;9.57;;;20.90;80.90;;;;;;5032765;28;20026;-60
2023/09/17 07:16:57;;;;;;;11.23;10.13;;;20.90;81.00;;;;;;5032634;28;20036;-60
2023/09/17 07:19:23;;;;;;;10.52;9.43;;;20.90;81.00;;;;;;5032619;28;20429;-60
2023/09/17 07:21:49;;;;;;;13.60;10.27;;;20.90;81.00;;;;;;5032033;28;20033;-60
2023/09/17 07:24:14;;;;;;;11.95;10.75;;;21.00;81.00;;;;;;5031530;28;20110;-60
2023/09/17 07:26:42;;;;;;;12.27;10.52;;;21.00;80.60;;;;;;5030574;28;20029;-60
2023/09/17 07:29:08;;;;;;;12.32;10.25;;;21.00;80.40;;;;;;5030551;28;20040;-59
2023/09/17 07:31:33;;;;;;;12.00;10.57;;;21.10;80.70;;;;;;5029537;28;20096;-60
2023/09/17 07:33:59;;;;;;;13.48;11.40;;;21.10;80.60;;;;;;5029189;28;20061;-60
2023/09/17 07:36:25;;;;;;;12.80;11.50;;;21.10;80.40;;;;;;5030423;28;20384;-60
2023/09/17 07:38:51;;;;;;;12.93;11.73;;;21.10;80.40;;;;;;5030410;28;20049;-60
2023/09/17 07:41:17;;;;;;;12.45;11.18;;;21.10;80.40;;;;;;5030453;28;20063;-60
2023/09/17 07:43:43;;;;;;;12.85;11.55;;;21.10;80.50;;;;;;5029234;28;20057;-59
2023/09/17 07:46:13;;;;;;;11.75;10.55;;;21.10;80.40;;;;;;5030077;28;20529;-60
2023/09/17 07:48:39;;;;;;;12.55;11.32;;;21.20;80.50;;;;;;5030817;28;20036;-60
2023/09/17 07:51:05;;;;;;;13.35;12.05;;;21.20;80.70;;;;;;5030176;28;20129;-60
2023/09/17 07:53:32;;;;;;;14.15;11.48;;;21.20;80.60;;;;;;5030422;28;20109;-60
2023/09/17 07:55:59;;;;;;;13.50;11.90;;;21.20;80.60;;;;;;5030601;28;20049;-60
2023/09/17 07:58:24;;;;;;;13.82;12.45;;;21.20;80.60;;;;;;5031484;28;20048;-60
2023/09/17 08:00:50;;;;;;;13.60;12.27;;;21.20;80.60;;;;;;5032080;28;20048;-60
2023/09/17 08:03:17;;;;;;;13.02;11.73;;;21.20;80.60;;;;;;5031320;28;20017;-60
2023/09/17 08:05:47;;;;;;;13.38;11.98;;;21.20;80.60;;;;;;5032108;28;20034;-60
2023/09/17 08:08:13;;;;;;;12.80;11.48;;;21.20;80.40;;;;;;5031876;28;20025;-60
2023/09/17 08:10:39;;;;;;;12.57;11.30;;;21.20;80.40;;;;;;5031791;28;20156;-60
2023/09/17 08:13:05;;;;;;;13.10;11.25;;;21.20;80.40;;;;;;5031749;28;20120;-60
2023/09/17 08:15:31;;;;;;;11.90;10.65;;;21.20;80.20;;;;;;5031630;28;20025;-60
2023/09/17 08:17:57;;;;;;;12.38;11.27;;;21.20;80.00;;;;;;5031634;28;20105;-60
2023/09/17 08:20:23;;;;;;;11.90;10.70;;;21.20;80.20;;;;;;5031611;28;20105;-60
2023/09/17 08:22:51;;;;;;;12.15;10.60;;;21.20;80.00;;;;;;5031420;28;20032;-60
2023/09/17 08:25:18;;;;;;;12.43;11.13;;;21.20;80.10;;;;;;5031606;28;20108;-60
2023/09/17 08:27:45;;;;;;;12.23;10.93;;;21.20;80.00;;;;;;5031554;28;20468;-60
2023/09/17 08:30:12;;;;;;;11.85;10.65;;;21.20;80.00;;;;;;5031580;28;20025;-60
2023/09/17 08:32:40;;;;;;;12.77;11.48;;;21.20;80.00;;;;;;5031731;28;20357;-60
2023/09/17 08:35:07;;;;;;;14.77;11.70;;;21.20;79.90;;;;;;5031354;28;20036;-60
2023/09/17 08:37:37;;;;;;;15.82;11.10;;;21.10;79.70;;;;;;5031337;28;20095;-60
2023/09/17 08:40:10;;;;;;;12.77;11.43;;;21.10;79.70;;;;;;5031618;28;20029;-60
2023/09/17 08:42:41;;;;;;;12.85;11.45;;;21.10;79.30;;;;;;5031289;28;20717;-60
2023/09/17 08:45:07;;;;;;;;;;;21.10;79.20;;;;;;5032026;28;20079;-60
2023/09/17 08:47:33;;;;;;;11.02;9.32;;;21.10;79.00;;;;;;5031150;28;20385;-60
2023/09/17 08:49:59;;;;;;;10.20;9.18;;;21.10;79.00;;;;;;5031175;28;20076;-60
2023/09/17 08:52:27;;;;;;;11.73;9.70;;;21.10;78.40;;;;;;5031334;28;20057;-60
2023/09/17 08:54:54;;;;;;;10.45;9.40;;;21.10;78.10;;;;;;5031047;28;20040;-60
2023/09/17 08:57:22;;;;;;;10.50;9.48;;;21.10;78.20;;;;;;5030958;28;20037;-60
2023/09/17 08:59:56;;;;;;;11.05;9.98;;;21.10;78.00;;;;;;5031178;28;20021;-60
2023/09/17 09:02:26;;;;;;;9.93;8.85;;;21.10;78.10;;;;;;5031150;28;20021;-60
2023/09/17 09:04:52;;;;;;;12.43;9.40;;;21.10;77.80;;;;;;5031036;28;20025;-60
2023/09/17 09:07:21;;;;;;;9.98;8.85;;;21.10;77.20;;;;;;5031220;28;20026;-60
2023/09/17 09:09:50;;;;;;;9.80;8.80;;;21.10;77.50;;;;;;5013459;28;20548;-60
2023/09/17 09:12:17;;;;;;;9.77;8.77;;;21.10;76.70;;;;;;5030810;28;20059;-60
2023/09/17 09:14:44;;;;;;;9.65;8.57;;;21.10;76.60;;;;;;5033123;28;20064;-59
2023/09/17 09:17:13;;;;;;;9.52;8.25;;;21.10;76.60;;;;;;5035378;28;20500;-60
2023/09/17 09:19:39;;;;;;;8.75;7.85;;;21.20;76.60;;;;;;5035008;28;20389;-60
2023/09/17 09:22:05;;;;;;;8.95;8.05;;;21.20;76.50;;;;;;5035171;28;20032;-60
2023/09/17 09:25:01;;;;;;;9.40;8.10;;;21.20;76.30;;;;;;5034793;28;20033;-59
2023/09/17 09:27:27;;;;;;;8.60;7.70;;;21.20;75.40;;;;;;5017250;28;20049;-60
2023/09/17 09:29:53;;;;;;;7.97;7.18;;;21.20;75.40;;;;;;5034762;28;20117;-60
2023/09/17 09:32:19;;;;;;;8.57;6.90;;;21.20;74.80;;;;;;5035073;28;20484;-60
2023/09/17 09:34:47;;;;;;;8.02;7.22;;;21.20;75.30;;;;;;5034927;28;20386;-60
2023/09/17 09:37:13;;;;;;;8.07;6.95;;;21.20;73.50;;;;;;5034899;28;20049;-60
2023/09/17 09:39:42;;;;;;;7.53;6.72;;;21.20;73.30;;;;;;5034581;28;20033;-60
2023/09/17 09:42:09;;;;;;;8.80;6.93;;;21.20;72.80;;;;;;5034458;28;20024;-60
2023/09/17 09:44:36;;;;;;;7.75;6.47;;;21.20;72.20;;;;;;5033070;28;20246;-60
2023/09/17 09:47:02;;;;;;;8.45;7.43;;;21.20;71.70;;;;;;5032477;28;20486;-60
2023/09/17 09:49:28;;;;;;;8.32;6.75;;;21.20;70.80;;;;;;5032554;28;20025;-60
2023/09/17 09:51:58;;;;;;;7.93;7.13;;;21.20;70.80;;;;;;5032564;28;20076;-59
2023/09/17 09:54:23;;;;;;;9.23;7.15;;;21.30;70.80;;;;;;5032410;28;20091;-60
2023/09/17 09:56:49;;;;;;;8.77;6.20;;;21.30;70.60;;;;;;5031690;28;20049;-60
2023/09/17 09:59:16;;;;;;;8.30;6.85;;;21.20;70.50;;;;;;5030524;28;20543;-60
2023/09/17 10:01:42;;;;;;;9.40;6.88;;;21.30;70.20;;;;;;5030603;28;20465;-60
2023/09/17 10:04:09;;;;;;;7.45;6.32;;;21.30;69.40;;;;;;5030104;28;20478;-60
2023/09/17 10:06:39;;;;;;;7.05;6.30;;;21.30;68.50;;;;;;5029955;28;20497;-60
2023/09/17 10:09:10;;;;;;;8.30;6.80;;;21.30;68.50;;;;;;5030613;28;20055;-60
2023/09/17 10:11:37;;;;;;;6.90;6.25;;;21.30;68.90;;;;;;5031669;28;20060;-60
2023/09/17 10:14:07;;;;;;;9.55;6.50;;;21.30;68.70;;;;;;5033017;28;20037;-60
2023/09/17 10:16:34;;;;;;;6.65;5.95;;;21.30;67.80;;;;;;5033797;28;20029;-60
2023/09/17 10:19:02;;;;;;;7.70;6.05;;;21.30;67.60;;;;;;5031264;28;20017;-60
2023/09/17 10:21:28;;;;;;;7.05;6.35;;;21.30;67.30;;;;;;5030916;28;20024;-60
2023/09/17 10:23:58;;;;;;;8.90;5.70;;;21.30;66.80;;;;;;5031405;28;20108;-60
2023/09/17 10:26:24;;;;;;;6.38;5.60;;;21.40;66.40;;;;;;5030393;28;20044;-60
2023/09/17 10:28:54;;;;;;;6.43;5.80;;;21.40;66.40;;;;;;5030917;28;20033;-60
2023/09/17 10:31:22;;;;;;;6.85;5.95;;;21.40;66.10;;;;;;5030871;28;20041;-60
2023/09/17 10:33:50;;;;;;;7.60;5.63;;;21.40;65.90;;;;;;5032516;28;20041;-60
2023/09/17 10:36:16;;;;;;;7.05;6.15;;;21.40;65.80;;;;;;5033809;28;20029;-60
2023/09/17 10:38:44;;;;;;;6.45;5.82;;;21.40;65.30;;;;;;5033572;28;20053;-60
2023/09/17 10:41:10;;;;;;;6.32;5.68;;;21.40;65.40;;;;;;5033943;28;20499;-60
2023/09/17 10:43:37;;;;;;;8.45;5.72;;;21.40;65.50;;;;;;5033376;28;20025;-59
2023/09/17 10:46:06;;;;;;;7.15;5.70;;;21.40;65.30;;;;;;5033402;28;20028;-60
2023/09/17 10:48:33;;;;;;;6.18;5.22;;;21.50;65.10;;;;;;5033599;28;20104;-60
2023/09/17 10:51:00;;;;;;;6.18;5.57;;;21.40;65.00;;;;;;5033272;28;20025;-60
2023/09/17 10:53:26;;;;;;;6.63;5.13;;;21.50;64.50;;;;;;5033348;28;20102;-60
2023/09/17 10:56:00;;;;;;;6.57;5.40;;;21.50;64.40;;;;;;5033110;28;20045;-60
2023/09/17 10:58:38;;;;;;;6.72;5.78;;;21.50;63.90;;;;;;5033549;28;20374;-60
2023/09/17 11:01:07;;;;;;;7.05;5.88;;;21.50;64.10;;;;;;5033109;28;20029;-60
2023/09/17 11:03:35;;;;;;;6.93;5.68;;;21.50;64.00;;;;;;5033243;28;20032;-60
2023/09/17 11:06:04;;;;;;;6.72;5.65;;;21.50;63.90;;;;;;5033297;28;20022;-60
2023/09/17 11:08:30;;;;;;;7.60;5.60;;;21.60;63.80;;;;;;5033219;28;20025;-59
2023/09/17 11:10:56;;;;;;;6.30;5.30;;;21.60;64.00;;;;;;5032989;28;20041;-60
2023/09/17 11:13:23;;;;;;;6.35;5.38;;;21.60;63.60;;;;;;5032866;28;20790;-60
2023/09/17 11:15:54;;;;;;;6.43;5.20;;;21.60;63.70;;;;;;5033175;28;20029;-60
2023/09/17 11:18:20;;;;;;;6.47;5.03;;;21.60;63.20;;;;;;5033142;28;20061;-60
2023/09/17 11:21:09;;;;;;;6.53;5.10;;;21.60;63.10;;;;;;5033021;28;20485;-60
2023/09/17 11:23:38;;;;;;;6.32;5.20;;;21.60;62.90;;;;;;5032787;28;20115;-60
2023/09/17 11:26:06;;;;;;;5.65;5.05;;;21.60;63.20;;;;;;5032688;28;20040;-60
2023/09/17 11:28:39;;;;;;;6.43;5.45;;;21.60;63.30;;;;;;5032010;28;20022;-60
2023/09/17 11:31:09;;;;;;;5.78;5.18;;;21.60;62.80;;;;;;5032669;28;20025;-60
2023/09/17 11:33:39;;;;;;;6.07;5.25;;;21.60;62.80;;;;;;5032750;28;20477;-60
2023/09/17 11:36:06;;;;;;;5.75;4.95;;;21.60;63.00;;;;;;5032482;28;20026;-60
2023/09/17 11:38:32;;;;;;;5.97;5.13;;;21.60;62.80;;;;;;5031889;28;20105;-60
2023/09/17 11:41:09;;;;;;;7.20;5.63;;;21.60;62.90;;;;;;5032378;28;20139;-60
2023/09/17 11:43:38;;;;;;;6.50;4.85;;;21.60;63.10;;;;;;5032531;28;20044;-60
2023/09/17 11:46:08;;;;;;;6.00;5.13;;;21.60;62.60;;;;;;5032196;28;20014;-60
2023/09/17 11:48:38;;;;;;;7.00;4.97;;;21.60;62.10;;;;;;5032372;28;20363;-60
2023/09/17 11:51:29;;;;;;;8.65;5.22;;;21.60;62.30;;;;;;5032235;28;20017;-60
2023/09/17 11:54:06;;;;;;;5.72;5.13;;;21.60;62.50;;;;;;5032150;28;20033;-60
2023/09/17 11:56:46;;;;;;;6.95;5.60;;;21.60;62.70;;;;;;5031989;28;20053;-59
2023/09/17 11:59:15;;;;;;;6.68;5.70;;;21.60;62.50;;;;;;5032353;28;20017;-59
2023/09/17 12:01:43;;;;;;;6.95;5.10;;;21.60;62.40;;;;;;5031829;28;20103;-59
2023/09/17 12:04:10;;;;;;;6.30;4.93;;;21.60;63.00;;;;;;5032021;28;20026;-58
2023/09/17 12:06:42;;;;;;;5.80;5.10;;;21.60;63.30;;;;;;5031811;28;20053;-59
2023/09/17 12:10:00;;;;;;;5.28;4.78;;;21.60;62.90;;;;;;5032158;28;20075;-59
2023/09/17 12:12:27;;;;;;;5.00;4.50;;;21.70;62.30;;;;;;5031686;28;20033;-59
2023/09/17 12:14:54;;;;;;;6.20;4.82;;;21.60;62.50;;;;;;5031970;28;20040;-58
2023/09/17 12:17:20;;;;;;;6.60;4.85;;;21.60;62.60;;;;;;5032124;28;20483;-58
2023/09/17 12:19:48;;;;;;;6.05;4.82;;;21.60;62.10;;;;;;5031694;28;20030;-58
2023/09/17 12:22:15;;;;;;;5.50;5.00;;;21.70;61.90;;;;;;5031632;28;20022;-58
2023/09/17 12:24:49;;;;;;;6.00;5.20;;;21.70;62.10;;;;;;5031651;28;20021;-59
2023/09/17 12:29:56;;;;;;;6.57;5.25;;;21.70;62.30;;;;;;5031555;28;20156;-59
2023/09/17 12:32:27;;;;;;;5.90;5.00;;;21.70;62.30;;;;;;5031473;28;20120;-58
2023/09/17 12:34:54;;;;;;;5.78;5.15;;;21.60;61.70;;;;;;5031775;28;20033;-59
2023/09/17 12:37:21;;;;;;;6.22;5.10;;;21.70;61.70;;;;;;5031310;28;20381;-59
2023/09/17 12:39:49;;;;;;;6.22;5.10;;;21.70;61.60;;;;;;5031583;28;20038;-59
2023/09/17 12:42:14;;;;;;;5.18;4.60;;;21.70;61.10;;;;;;5029695;28;20114;-59